Time;durP1;ratioP1;P1;durP2;ratioP2;P2;SDS_P1;SDS_P2;PMS_P1;PMS_P2;Temp;Humidity;BMP_temperature;BMP_pressure;BME280_temperature;BME280_humidity;BME280_pressure;Samples;Min_cycle;Max_cycle;Signal;HPM_P1;HPM_P2
2023/04/12 00:01:13;;;;;;;1.90;0.50;;;;;;;;;;10072531;29;20421;-83
2023/04/12 00:06:17;;;;;;;2.22;0.80;;;;;;;;;;10081011;29;20045;-83
2023/04/12 00:11:21;;;;;;;0.70;0.60;;;;;;;;;;10081683;29;20173;-82
2023/04/12 00:16:25;;;;;;;1.17;0.40;;;;;;;;;;10088071;29;20087;-83
2023/04/12 00:21:29;;;;;;;2.90;0.70;;;;;;;;;;10090024;29;20475;-82
2023/04/12 00:26:33;;;;;;;1.42;0.55;;;;;;;;;;10092067;29;20163;-82
2023/04/12 00:31:37;;;;;;;2.70;0.70;;;;;;;;;;10079644;29;20048;-82
2023/04/12 00:36:40;;;;;;;2.05;1.00;;;;;;;;;;10073640;29;20097;-82
2023/04/12 00:41:46;;;;;;;1.50;0.60;;;;;;;;;;10072749;29;20063;-82
2023/04/12 00:46:49;;;;;;;1.67;0.77;;;;;;;;;;10074756;29;20044;-82
2023/04/12 00:51:54;;;;;;;1.13;0.60;;;;;;;;;;10072138;29;20193;-82
2023/04/12 00:56:59;;;;;;;1.23;0.60;;;;;;;;;;10073053;29;20048;-82
2023/04/12 01:02:03;;;;;;;1.87;0.87;;;;;;;;;;10075594;29;20134;-82
2023/04/12 01:07:16;;;;;;;3.78;1.35;;;;;;;;;;10074407;29;20041;-82
2023/04/12 01:12:33;;;;;;;1.85;0.90;;;;;;;;;;10087857;29;20072;-82
2023/04/12 01:17:44;;;;;;;2.25;0.85;;;;;;;;;;10070685;29;20097;-83
2023/04/12 01:23:09;;;;;;;2.72;1.17;;;;;;;;;;10073028;29;20467;-83
2023/04/12 01:28:20;;;;;;;1.90;0.75;;;;;;;;;;10074439;29;20073;-83
2023/04/12 01:33:30;;;;;;;3.60;1.10;;;;;;;;;;10064202;29;20088;-86
2023/04/12 01:38:34;;;;;;;1.23;0.75;;;;;;;;;;10068681;29;20052;-87
2023/04/12 01:43:45;;;;;;;2.85;1.27;;;;;;;;;;10068096;29;20045;-86
2023/04/12 01:48:51;;;;;;;4.55;1.00;;;;;;;;;;10073271;29;20521;-85
2023/04/12 01:53:59;;;;;;;1.70;0.70;;;;;;;;;;10067832;29;20132;-85
2023/04/12 01:59:05;;;;;;;2.00;0.55;;;;;;;;;;10063824;29;20503;-86
2023/04/12 02:04:11;;;;;;;1.17;0.90;;;;;;;;;;10087630;29;20041;-87
2023/04/12 02:09:16;;;;;;;0.95;0.55;;;;;;;;;;10074151;29;20149;-86
2023/04/12 02:14:21;;;;;;;1.60;0.82;;;;;;;;;;10071653;29;20088;-86
2023/04/12 02:19:25;;;;;;;3.10;0.73;;;;;;;;;;10069294;29;20095;-85
2023/04/12 02:24:29;;;;;;;3.15;1.15;;;;;;;;;;10071308;29;20206;-87
2023/04/12 02:29:34;;;;;;;2.47;1.20;;;;;;;;;;10072406;29;20692;-85
2023/04/12 02:34:38;;;;;;;2.00;0.85;;;;;;;;;;10071111;29;20101;-86
2023/04/12 02:39:55;;;;;;;3.13;0.90;;;;;;;;;;10083180;29;20077;-86
2023/04/12 02:45:01;;;;;;;3.65;0.80;;;;;;;;;;10073296;29;20510;-86
2023/04/12 02:50:06;;;;;;;2.15;1.00;;;;;;;;;;10086369;29;20048;-86
2023/04/12 02:55:19;;;;;;;2.35;0.85;;;;;;;;;;10081895;29;20084;-85
2023/04/12 03:00:24;;;;;;;1.65;0.77;;;;;;;;;;10068526;29;20052;-85
2023/04/12 03:05:33;;;;;;;1.58;0.70;;;;;;;;;;10074023;29;20053;-83
2023/04/12 03:10:37;;;;;;;3.88;1.35;;;;;;;;;;10071760;29;20048;-83
2023/04/12 03:15:43;;;;;;;1.70;0.80;;;;;;;;;;10073069;29;20059;-83
2023/04/12 03:20:48;;;;;;;1.88;0.70;;;;;;;;;;10071733;29;20053;-83
2023/04/12 03:25:52;;;;;;;1.10;0.70;;;;;;;;;;10078440;29;20132;-83
2023/04/12 03:31:19;;;;;;;1.15;0.70;;;;;;;;;;10086587;29;20111;-83
2023/04/12 03:36:23;;;;;;;1.63;0.60;;;;;;;;;;10063549;29;20052;-83
2023/04/12 03:41:33;;;;;;;2.00;0.60;;;;;;;;;;10068428;29;20079;-83
2023/04/12 03:46:40;;;;;;;2.08;0.80;;;;;;;;;;10068493;29;20076;-83
2023/04/12 03:51:49;;;;;;;0.82;0.60;;;;;;;;;;10062849;29;20462;-83
2023/04/12 03:56:53;;;;;;;0.88;0.68;;;;;;;;;;10064825;29;20045;-83
2023/04/12 04:02:04;;;;;;;0.95;0.50;;;;;;;;;;10067667;29;20459;-83
2023/04/12 04:07:10;;;;;;;3.00;0.80;;;;;;;;;;10077400;29;20072;-83
2023/04/12 04:12:17;;;;;;;1.23;0.70;;;;;;;;;;10069121;29;20764;-82
2023/04/12 04:17:26;;;;;;;3.80;0.77;;;;;;;;;;10064734;29;20101;-83
2023/04/12 04:22:31;;;;;;;1.52;0.90;;;;;;;;;;10059650;29;20055;-83
2023/04/12 04:27:39;;;;;;;0.93;0.60;;;;;;;;;;10056225;29;20041;-83
2023/04/12 04:32:47;;;;;;;1.13;0.50;;;;;;;;;;10064968;29;20140;-84
2023/04/12 04:37:54;;;;;;;0.75;0.50;;;;;;;;;;10065705;29;20047;-84
2023/04/12 04:43:01;;;;;;;0.60;0.45;;;;;;;;;;10058988;29;20049;-84
2023/04/12 04:48:11;;;;;;;0.80;0.60;;;;;;;;;;10059868;29;20045;-84
2023/04/12 04:53:15;;;;;;;0.50;0.50;;;;;;;;;;10064970;29;20117;-84
2023/04/12 04:58:19;;;;;;;0.60;0.60;;;;;;;;;;10059008;29;20049;-84
2023/04/12 05:03:26;;;;;;;1.08;0.70;;;;;;;;;;10072466;29;20735;-84
2023/04/12 05:08:32;;;;;;;1.02;0.82;;;;;;;;;;10069825;29;20068;-85
2023/04/12 05:13:35;;;;;;;1.77;0.70;;;;;;;;;;10061864;29;20090;-86
2023/04/12 05:18:40;;;;;;;1.90;0.70;;;;;;;;;;10078780;29;20045;-85
2023/04/12 05:23:46;;;;;;;1.35;0.73;;;;;;;;;;10061822;29;20045;-86
2023/04/12 05:28:49;;;;;;;1.10;0.50;;;;;;;;;;10077648;29;20467;-85
2023/04/12 05:33:57;;;;;;;1.50;0.70;;;;;;;;;;10077314;29;20297;-86
2023/04/12 05:39:07;;;;;;;1.02;0.68;;;;;;;;;;10062016;29;20669;-85
2023/04/12 05:44:11;;;;;;;0.68;0.60;;;;;;;;;;10059589;29;20147;-83
2023/04/12 05:49:16;;;;;;;0.65;0.65;;;;;;;;;;10070959;29;20388;-83
2023/04/12 05:54:20;;;;;;;0.57;0.57;;;;;;;;;;10070970;29;20057;-82
2023/04/12 05:59:26;;;;;;;1.88;0.85;;;;;;;;;;10077568;29;20052;-83
2023/04/12 06:04:32;;;;;;;1.20;0.65;;;;;;;;;;10065195;29;20053;-83
2023/04/12 06:09:46;;;;;;;;;;;;;;;;;;10069957;29;20249;-82
2023/04/12 06:14:50;;;;;;;1.15;0.80;;;;;;;;;;10087569;29;20380;-83
2023/04/12 06:19:55;;;;;;;1.77;1.15;;;;;;;;;;10083495;29;20041;-83
2023/04/12 06:24:59;;;;;;;1.60;0.90;;;;;;;;;;10075115;29;20079;-86
2023/04/12 06:30:03;;;;;;;1.63;0.98;;;;;;;;;;10062866;29;20049;-85
2023/04/12 06:35:11;;;;;;;1.52;1.10;;;;;;;;;;10071007;29;20060;-87
2023/04/12 06:40:15;;;;;;;0.60;0.60;;;;;;;;;;10064469;29;20041;-86
2023/04/12 06:45:18;;;;;;;0.68;0.68;;;;;;;;;;10070408;29;20041;-84
2023/04/12 06:50:24;;;;;;;0.70;0.70;;;;;;;;;;10065621;29;20045;-85
2023/04/12 06:55:28;;;;;;;0.77;0.75;;;;;;;;;;10075160;29;20053;-84
2023/04/12 07:00:32;;;;;;;0.77;0.50;;;;;;;;;;10070330;29;20388;-88
2023/04/12 07:05:39;;;;;;;0.65;0.60;;;;;;;;;;10087419;29;20079;-84
2023/04/12 07:10:43;;;;;;;1.40;0.88;;;;;;;;;;10071418;29;20640;-87
2023/04/12 07:15:46;;;;;;;0.73;0.70;;;;;;;;;;10091901;29;20491;-84
2023/04/12 07:20:54;;;;;;;0.73;0.73;;;;;;;;;;10071289;29;20053;-85
2023/04/12 07:26:00;;;;;;;0.60;0.60;;;;;;;;;;10075080;29;20051;-86
2023/04/12 07:31:06;;;;;;;0.80;0.80;;;;;;;;;;10067689;29;20065;-83
2023/04/12 07:36:11;;;;;;;0.90;0.55;;;;;;;;;;10091086;29;20065;-85
2023/04/12 07:41:14;;;;;;;2.08;0.50;;;;;;;;;;10089242;29;20144;-85
2023/04/12 07:46:18;;;;;;;0.45;0.45;;;;;;;;;;10076858;29;20060;-84
2023/04/12 07:51:22;;;;;;;0.98;0.50;;;;;;;;;;10075532;29;20091;-85
2023/04/12 07:56:26;;;;;;;0.90;0.40;;;;;;;;;;10076458;29;20057;-87
2023/04/12 08:01:29;;;;;;;0.47;0.40;;;;;;;;;;10075329;29;20049;-83
2023/04/12 08:06:34;;;;;;;0.82;0.50;;;;;;;;;;10094240;29;20057;-84
2023/04/12 08:11:38;;;;;;;0.30;0.30;;;;;;;;;;10070724;29;20572;-83
2023/04/12 08:16:41;;;;;;;0.60;0.50;;;;;;;;;;10087395;29;20056;-84
2023/04/12 08:21:46;;;;;;;1.17;0.43;;;;;;;;;;10069282;29;20049;-85
2023/04/12 08:26:50;;;;;;;1.08;0.57;;;;;;;;;;10085094;29;20131;-83
2023/04/12 08:31:55;;;;;;;0.47;0.40;;;;;;;;;;10069190;29;20049;-84
2023/04/12 08:37:00;;;;;;;0.70;0.70;;;;;;;;;;10084185;29;20052;-86
2023/04/12 08:42:04;;;;;;;0.30;0.30;;;;;;;;;;10083654;29;20045;-84
2023/04/12 08:47:13;;;;;;;0.88;0.38;;;;;;;;;;10116169;23;20395;-83
2023/04/12 08:52:18;;;;;;;0.98;0.60;;;;;;;;;;10067637;29;20145;-83
2023/04/12 08:57:21;;;;;;;0.75;0.60;;;;;;;;;;10072449;29;20057;-83
2023/04/12 09:02:24;;;;;;;0.63;0.52;;;;;;;;;;10074608;29;20143;-84
2023/04/12 09:07:30;;;;;;;0.50;0.50;;;;;;;;;;10077136;29;20057;-86
2023/04/12 09:12:33;;;;;;;0.65;0.55;;;;;;;;;;10083165;29;20080;-85
2023/04/12 09:17:37;;;;;;;0.47;0.47;;;;;;;;;;10073313;29;20073;-84
2023/04/12 09:22:44;;;;;;;0.70;0.60;;;;;;;;;;10094823;29;20037;-82
2023/04/12 09:27:47;;;;;;;;;;;;;;;;;;10099836;29;20056;-83
2023/04/12 09:32:52;;;;;;;1.05;0.40;;;;;;;;;;10101062;29;19973;-82
2023/04/12 09:38:06;;;;;;;0.60;0.40;;;;;;;;;;10074195;29;20092;-82
2023/04/12 09:43:10;;;;;;;0.82;0.52;;;;;;;;;;10078007;29;20041;-82
2023/04/12 09:48:20;;;;;;;0.40;0.30;;;;;;;;;;10068392;29;20045;-82
2023/04/12 09:53:25;;;;;;;0.40;0.40;;;;;;;;;;10061094;29;20079;-82
2023/04/12 09:58:31;;;;;;;0.68;0.38;;;;;;;;;;10063344;29;20048;-82
2023/04/12 10:03:34;;;;;;;0.60;0.60;;;;;;;;;;10067230;29;20071;-81
2023/04/12 10:08:40;;;;;;;1.13;0.82;;;;;;;;;;10062120;29;20679;-82
2023/04/12 10:13:44;;;;;;;0.50;0.40;;;;;;;;;;10063985;29;20045;-83
2023/04/12 10:18:48;;;;;;;0.40;0.40;;;;;;;;;;10060857;29;20080;-82
2023/04/12 10:23:53;;;;;;;0.93;0.60;;;;;;;;;;10086468;29;20053;-82
2023/04/12 10:29:26;;;;;;;0.30;0.30;;;;;;;;;;10086573;29;20143;-82
2023/04/12 10:34:30;;;;;;;0.40;0.40;;;;;;;;;;10084429;29;20045;-82
2023/04/12 10:39:47;;;;;;;0.52;0.30;;;;;;;;;;10086563;29;20045;-82
2023/04/12 10:44:50;;;;;;;0.88;0.40;;;;;;;;;;10066576;29;20045;-82
2023/04/12 10:50:20;;;;;;;0.20;0.20;;;;;;;;;;10066164;29;20139;-82
2023/04/12 10:55:32;;;;;;;0.75;0.40;;;;;;;;;;10068391;29;20057;-82
2023/04/12 11:01:09;;;;;;;0.93;0.50;;;;;;;;;;10070069;29;20056;-82
2023/04/12 11:06:12;;;;;;;1.17;0.70;;;;;;;;;;10085908;29;20136;-83
2023/04/12 11:11:42;;;;;;;0.52;0.40;;;;;;;;;;10082221;29;20135;-82
2023/04/12 11:17:20;;;;;;;0.85;0.50;;;;;;;;;;10078478;29;20052;-82
2023/04/12 11:22:27;;;;;;;0.30;0.30;;;;;;;;;;10090596;29;20136;-82
2023/04/12 11:27:33;;;;;;;0.33;0.30;;;;;;;;;;10095413;29;20061;-83
2023/04/12 11:32:40;;;;;;;1.80;0.43;;;;;;;;;;10092306;29;20069;-82
2023/04/12 11:37:44;;;;;;;0.40;0.40;;;;;;;;;;10082378;29;20365;-84
2023/04/12 11:42:49;;;;;;;0.75;0.60;;;;;;;;;;10103610;29;20044;-83
2023/04/12 11:47:53;;;;;;;0.85;0.40;;;;;;;;;;10079858;29;20499;-85
2023/04/12 11:53:11;;;;;;;0.20;0.10;;;;;;;;;;10100254;29;20049;-84
2023/04/12 11:58:16;;;;;;;0.50;0.30;;;;;;;;;;10081646;29;20225;-82
2023/04/12 12:03:19;;;;;;;0.20;0.20;;;;;;;;;;10093120;29;20060;-82
2023/04/12 12:08:23;;;;;;;0.30;0.30;;;;;;;;;;10078853;29;20059;-82
2023/04/12 12:13:43;;;;;;;0.20;0.20;;;;;;;;;;10072995;29;20060;-83
2023/04/12 12:18:48;;;;;;;0.55;0.50;;;;;;;;;;10075871;29;20569;-83
2023/04/12 12:23:55;;;;;;;0.65;0.20;;;;;;;;;;10071256;29;20057;-83
2023/04/12 12:29:00;;;;;;;0.35;0.30;;;;;;;;;;10077638;29;20060;-82
2023/04/12 12:34:03;;;;;;;0.57;0.30;;;;;;;;;;10085639;29;20178;-83
2023/04/12 12:39:09;;;;;;;0.20;0.20;;;;;;;;;;10085741;29;20077;-83
2023/04/12 12:44:14;;;;;;;0.20;0.20;;;;;;;;;;10086641;29;20049;-83
2023/04/12 12:49:17;;;;;;;0.20;0.20;;;;;;;;;;10068807;29;20517;-83
2023/04/12 12:54:20;;;;;;;0.13;0.13;;;;;;;;;;10078969;29;20037;-83
2023/04/12 12:59:41;;;;;;;0.22;0.20;;;;;;;;;;10088811;29;20049;-83
2023/04/12 13:04:44;;;;;;;1.58;0.17;;;;;;;;;;10085211;29;20263;-84
2023/04/12 13:09:48;;;;;;;0.57;0.20;;;;;;;;;;10089639;29;20120;-83
2023/04/12 13:14:53;;;;;;;0.20;0.10;;;;;;;;;;10079950;29;20079;-83
2023/04/12 13:20:00;;;;;;;0.20;0.10;;;;;;;;;;10090106;29;20056;-83
2023/04/12 13:25:04;;;;;;;0.10;0.10;;;;;;;;;;10070008;29;20112;-83
2023/04/12 13:30:09;;;;;;;0.20;0.20;;;;;;;;;;10070337;29;20122;-83
2023/04/12 13:35:13;;;;;;;0.35;0.20;;;;;;;;;;10067341;29;20076;-83
2023/04/12 13:40:16;;;;;;;0.45;0.10;;;;;;;;;;10095706;29;20061;-82
2023/04/12 13:45:21;;;;;;;0.28;0.20;;;;;;;;;;10105953;29;20041;-83
2023/04/12 13:50:24;;;;;;;0.10;0.10;;;;;;;;;;10085580;29;20053;-83
2023/04/12 13:55:28;;;;;;;0.15;0.15;;;;;;;;;;10095000;29;20135;-83
2023/04/12 14:00:32;;;;;;;0.40;0.20;;;;;;;;;;10092999;29;20694;-83
2023/04/12 14:05:36;;;;;;;0.30;0.20;;;;;;;;;;10085849;29;20124;-83
2023/04/12 14:10:39;;;;;;;0.52;0.35;;;;;;;;;;10069821;29;20533;-82
2023/04/12 14:15:44;;;;;;;0.10;0.10;;;;;;;;;;10069272;29;20642;-83
2023/04/12 14:20:51;;;;;;;0.10;0.10;;;;;;;;;;10086869;29;20041;-82
2023/04/12 14:25:54;;;;;;;0.20;0.20;;;;;;;;;;10090695;29;20045;-82
2023/04/12 14:31:00;;;;;;;0.55;0.30;;;;;;;;;;10078602;29;20053;-83
2023/04/12 14:36:05;;;;;;;1.33;0.60;;;;;;;;;;10071939;29;20045;-83
2023/04/12 14:41:09;;;;;;;0.20;0.10;;;;;;;;;;10094209;29;20053;-83
2023/04/12 14:46:13;;;;;;;1.02;0.35;;;;;;;;;;10118339;23;20049;-86
2023/04/12 14:51:17;;;;;;;0.20;0.20;;;;;;;;;;10056866;29;20054;-86
2023/04/12 14:56:21;;;;;;;0.10;0.10;;;;;;;;;;10041001;29;20097;-87
2023/04/12 15:01:28;;;;;;;0.22;0.20;;;;;;;;;;10057242;29;20049;-86
2023/04/12 15:06:33;;;;;;;0.30;0.30;;;;;;;;;;10039594;29;20041;-87
2023/04/12 15:11:38;;;;;;;1.77;0.25;;;;;;;;;;10037786;29;20049;-87
2023/04/12 15:16:43;;;;;;;0.98;0.30;;;;;;;;;;10031829;29;20045;-86
2023/04/12 15:21:49;;;;;;;0.57;0.30;;;;;;;;;;10028987;29;20422;-88
2023/04/12 15:26:53;;;;;;;0.40;0.30;;;;;;;;;;10048027;29;20045;-90
2023/04/12 15:31:58;;;;;;;0.60;0.30;;;;;;;;;;10045483;29;20049;-87
2023/04/12 15:37:01;;;;;;;0.45;0.20;;;;;;;;;;10045212;29;20053;-85
2023/04/12 15:42:05;;;;;;;0.75;0.30;;;;;;;;;;10034675;29;20045;-87
2023/04/12 15:47:10;;;;;;;2.22;0.40;;;;;;;;;;10031557;29;20053;-85
2023/04/12 15:52:14;;;;;;;0.20;0.20;;;;;;;;;;10030257;29;20113;-90
2023/04/12 15:57:18;;;;;;;0.32;0.30;;;;;;;;;;10035926;29;20072;-88
2023/04/12 16:02:22;;;;;;;0.30;0.30;;;;;;;;;;10056363;29;20144;-86
2023/04/12 16:07:28;;;;;;;2.80;0.40;;;;;;;;;;10050496;29;20046;-86
2023/04/12 16:12:32;;;;;;;0.33;0.30;;;;;;;;;;10025802;29;20233;-87
2023/04/12 16:17:37;;;;;;;1.77;0.40;;;;;;;;;;10036484;29;20073;-85
2023/04/12 16:22:41;;;;;;;0.90;0.30;;;;;;;;;;10029028;29;20057;-88
2023/04/12 16:27:45;;;;;;;0.73;0.20;;;;;;;;;;10047045;29;20419;-87
2023/04/12 16:32:50;;;;;;;0.43;0.32;;;;;;;;;;10049254;29;20076;-86
2023/04/12 16:37:55;;;;;;;0.57;0.40;;;;;;;;;;10060233;29;20164;-86
2023/04/12 16:42:58;;;;;;;1.70;0.50;;;;;;;;;;10026030;29;20507;-86
2023/04/12 16:48:06;;;;;;;1.48;0.40;;;;;;;;;;10041753;29;20052;-88
2023/04/12 16:53:10;;;;;;;1.70;0.60;;;;;;;;;;10039733;29;20049;-88
2023/04/12 16:58:14;;;;;;;0.98;0.50;;;;;;;;;;10028805;29;20144;-86
2023/04/12 17:03:19;;;;;;;2.05;0.40;;;;;;;;;;10028265;29;20080;-86
2023/04/12 17:08:23;;;;;;;1.57;0.60;;;;;;;;;;10050793;29;20128;-89
2023/04/12 17:13:27;;;;;;;1.83;0.60;;;;;;;;;;10044751;29;20402;-87
2023/04/12 17:18:33;;;;;;;1.45;0.45;;;;;;;;;;10033707;29;20053;-86
2023/04/12 17:23:37;;;;;;;1.25;0.52;;;;;;;;;;10028650;29;20052;-86
2023/04/12 17:28:41;;;;;;;2.13;0.80;;;;;;;;;;10046017;29;20053;-86
2023/04/12 17:33:46;;;;;;;0.63;0.52;;;;;;;;;;10016477;29;20101;-88
2023/04/12 17:38:50;;;;;;;0.32;0.30;;;;;;;;;;10038558;29;20049;-87
2023/04/12 17:43:53;;;;;;;0.22;0.22;;;;;;;;;;10036753;29;20045;-87
2023/04/12 17:49:01;;;;;;;0.45;0.22;;;;;;;;;;10019113;29;20126;-87
2023/04/12 17:54:04;;;;;;;1.15;0.40;;;;;;;;;;10032216;29;20458;-88
2023/04/12 17:59:09;;;;;;;1.15;0.38;;;;;;;;;;10039313;29;20249;-87
2023/04/12 18:04:14;;;;;;;0.20;0.20;;;;;;;;;;10012947;29;20147;-89
2023/04/12 18:09:18;;;;;;;0.52;0.40;;;;;;;;;;10047984;29;20073;-89
2023/04/12 18:14:22;;;;;;;0.40;0.20;;;;;;;;;;10020395;29;20053;-87
2023/04/12 18:19:27;;;;;;;0.20;0.20;;;;;;;;;;10023919;29;20495;-92
2023/04/12 18:24:32;;;;;;;1.35;0.40;;;;;;;;;;10022707;29;20472;-84
2023/04/12 18:29:36;;;;;;;0.30;0.30;;;;;;;;;;10034055;29;20050;-83
2023/04/12 18:34:40;;;;;;;0.60;0.30;;;;;;;;;;10037088;29;20140;-88
2023/04/12 18:39:45;;;;;;;0.22;0.22;;;;;;;;;;10024450;29;20518;-87
2023/04/12 18:44:51;;;;;;;0.57;0.40;;;;;;;;;;9993126;29;20427;-87
2023/04/12 18:49:55;;;;;;;0.20;0.20;;;;;;;;;;9991419;29;20507;-89
2023/04/12 18:54:59;;;;;;;0.30;0.30;;;;;;;;;;10006322;29;20091;-88
2023/04/12 19:00:08;;;;;;;0.47;0.30;;;;;;;;;;10011398;29;20046;-88
2023/04/12 19:05:14;;;;;;;0.50;0.40;;;;;;;;;;9995253;29;20335;-87
2023/04/12 19:10:17;;;;;;;1.27;0.40;;;;;;;;;;10017157;29;20118;-89
2023/04/12 19:15:21;;;;;;;1.38;0.35;;;;;;;;;;10004439;29;20106;-86
2023/04/12 19:20:26;;;;;;;0.45;0.40;;;;;;;;;;9996730;29;20050;-87
2023/04/12 19:25:31;;;;;;;0.30;0.30;;;;;;;;;;10001922;29;20122;-86
2023/04/12 19:30:37;;;;;;;0.50;0.30;;;;;;;;;;10011739;29;20716;-88
2023/04/12 19:35:42;;;;;;;0.70;0.30;;;;;;;;;;9988312;29;20394;-87
2023/04/12 19:40:46;;;;;;;0.68;0.30;;;;;;;;;;9994431;29;20054;-86
2023/04/12 19:45:52;;;;;;;0.35;0.20;;;;;;;;;;9992800;29;20042;-89
2023/04/12 19:50:57;;;;;;;;;;;;;;;;;;10005077;29;20070;-91
2023/04/12 19:56:02;;;;;;;0.60;0.30;;;;;;;;;;10002779;29;20019;-84
2023/04/12 20:01:06;;;;;;;2.20;0.70;;;;;;;;;;9993168;29;20057;-84
2023/04/12 20:06:11;;;;;;;2.05;0.70;;;;;;;;;;9998669;29;20045;-84
2023/04/12 20:11:14;;;;;;;0.70;0.50;;;;;;;;;;10012408;29;20054;-84
2023/04/12 20:16:18;;;;;;;0.40;0.40;;;;;;;;;;9997833;29;20485;-84
2023/04/12 20:21:23;;;;;;;0.45;0.40;;;;;;;;;;9989888;29;20081;-84
2023/04/12 20:26:30;;;;;;;0.30;0.30;;;;;;;;;;10004384;29;20500;-84
2023/04/12 20:31:33;;;;;;;0.60;0.38;;;;;;;;;;9988525;29;20089;-84
2023/04/12 20:36:38;;;;;;;0.88;0.40;;;;;;;;;;9989397;29;20053;-83
2023/04/12 20:41:48;;;;;;;0.95;0.75;;;;;;;;;;9990640;29;20080;-84
2023/04/12 20:46:52;;;;;;;1.05;0.50;;;;;;;;;;10032567;23;20101;-82
2023/04/12 20:51:58;;;;;;;0.82;0.40;;;;;;;;;;10053330;29;20446;-81
2023/04/12 20:57:02;;;;;;;1.45;0.70;;;;;;;;;;10077584;29;20542;-82
2023/04/12 21:02:07;;;;;;;0.60;0.50;;;;;;;;;;10073922;29;20064;-82
2023/04/12 21:07:12;;;;;;;0.57;0.57;;;;;;;;;;10051207;29;20049;-83
2023/04/12 21:12:17;;;;;;;0.90;0.60;;;;;;;;;;10027559;29;20144;-82
2023/04/12 21:17:21;;;;;;;0.90;0.50;;;;;;;;;;10028352;29;20290;-82
2023/04/12 21:22:26;;;;;;;2.10;0.63;;;;;;;;;;10033040;29;20054;-82
2023/04/12 21:27:32;;;;;;;1.20;0.63;;;;;;;;;;10029766;29;20055;-83
2023/04/12 21:32:35;;;;;;;0.90;0.60;;;;;;;;;;10023440;29;20046;-82
2023/04/12 21:37:40;;;;;;;0.57;0.40;;;;;;;;;;10047432;29;20137;-83
2023/04/12 21:42:44;;;;;;;0.60;0.50;;;;;;;;;;10047843;29;20419;-83
2023/04/12 21:47:48;;;;;;;1.30;0.70;;;;;;;;;;10031618;29;20131;-83
2023/04/12 21:52:54;;;;;;;2.35;0.60;;;;;;;;;;10045248;29;20132;-83
2023/04/12 21:57:58;;;;;;;1.15;0.50;;;;;;;;;;10035430;29;20579;-82
2023/04/12 22:03:01;;;;;;;0.32;0.22;;;;;;;;;;10032402;29;20049;-82
2023/04/12 22:08:07;;;;;;;0.98;0.60;;;;;;;;;;10052950;29;20071;-82
2023/04/12 22:13:10;;;;;;;0.53;0.40;;;;;;;;;;10049655;29;20124;-83
2023/04/12 22:18:15;;;;;;;0.40;0.40;;;;;;;;;;10037230;29;20045;-83
2023/04/12 22:23:22;;;;;;;0.82;0.47;;;;;;;;;;10042993;29;20124;-82
2023/04/12 22:28:25;;;;;;;0.65;0.50;;;;;;;;;;10059131;29;20046;-82
2023/04/12 22:33:28;;;;;;;0.90;0.30;;;;;;;;;;10045756;29;20084;-83
2023/04/12 22:38:34;;;;;;;0.75;0.40;;;;;;;;;;10062286;29;20047;-82
2023/04/12 22:43:40;;;;;;;0.30;0.30;;;;;;;;;;10046890;29;20069;-82
2023/04/12 22:48:44;;;;;;;;;;;;;;;;;;10059700;29;20362;-83
2023/04/12 22:53:49;;;;;;;0.40;0.35;;;;;;;;;;10064609;29;19932;-83
2023/04/12 22:58:52;;;;;;;0.57;0.38;;;;;;;;;;10064019;29;20082;-83
2023/04/12 23:03:56;;;;;;;0.63;0.40;;;;;;;;;;10065878;29;20570;-82
2023/04/12 23:09:04;;;;;;;0.45;0.45;;;;;;;;;;10071438;29;20102;-82
2023/04/12 23:14:09;;;;;;;1.75;0.73;;;;;;;;;;10051368;29;20059;-81
2023/04/12 23:19:13;;;;;;;0.45;0.30;;;;;;;;;;10028781;29;20573;-82
2023/04/12 23:24:18;;;;;;;1.33;0.40;;;;;;;;;;10044687;29;20132;-82
2023/04/12 23:29:24;;;;;;;1.27;0.28;;;;;;;;;;10028604;29;20054;-82
2023/04/12 23:34:33;;;;;;;0.70;0.30;;;;;;;;;;10045253;29;20133;-83
2023/04/12 23:39:39;;;;;;;1.60;0.30;;;;;;;;;;10028160;29;20056;-82
2023/04/12 23:44:42;;;;;;;0.60;0.40;;;;;;;;;;10046925;29;20228;-82
2023/04/12 23:49:45;;;;;;;0.75;0.47;;;;;;;;;;10028951;29;20098;-83
2023/04/12 23:54:50;;;;;;;1.25;0.30;;;;;;;;;;10029329;29;20063;-83
2023/04/12 23:59:53;;;;;;;1.02;0.40;;;;;;;;;;10046484;29;20046;-82
